Chipping Norton, United Kingdom
Current Conditions -  °F | °C
As of 10:20 PM on Wednesday 22 Oct 2014 (Local Time) from EGTK Reporting Station
Clear Clear  
Wind Chill: 50°   Ceiling: Unl
Heat Index: 50°   Visibility: 6mi
Dew Point: 48°   Wind: 7mph
Humidity: 94%   Direction: 230°SW
Pressure: 30.18"   Gusts: NA
Location:  51.94°N, 1.55°W
Report Text: EGTK 222120Z 23006KT 200V260 CAVOK 10/09 Q1022
Loading
Personal Weather Stations






























Interactive Weather Map
Tropical Storm Tracking
New forecast layout! Learn more

10-Day Weather Forecast

Advertisements
Track Severe Weather on mobile